createdAt,value
2024-04-14T00:02:06.969Z,8.73
2024-04-14T00:04:35.169Z,8.23
2024-04-14T00:07:03.592Z,8.52
2024-04-14T00:09:31.574Z,8.73
2024-04-14T00:11:59.938Z,8.15
2024-04-14T00:14:27.809Z,9.27
2024-04-14T00:16:56.089Z,8.85
2024-04-14T00:19:24.178Z,8.32
2024-04-14T00:21:53.169Z,8.50
2024-04-14T00:24:21.127Z,8.90
2024-04-14T00:26:50.749Z,8.93
2024-04-14T00:29:20.331Z,9.07
2024-04-14T00:31:48.633Z,9.05
2024-04-14T00:34:16.674Z,8.65
2024-04-14T00:36:45.013Z,9.90
2024-04-14T00:39:13.557Z,8.90
2024-04-14T00:41:41.923Z,8.35
2024-04-14T00:44:09.768Z,9.18
2024-04-14T00:46:38.316Z,9.88
2024-04-14T00:49:06.456Z,9.80
2024-04-14T00:51:36.645Z,10.10
2024-04-14T00:54:05.043Z,11.43
2024-04-14T00:56:33.496Z,11.27
2024-04-14T00:59:01.621Z,11.10
2024-04-14T01:01:30.032Z,10.48
2024-04-14T01:03:58.098Z,11.30
2024-04-14T01:06:26.630Z,10.25
2024-04-14T01:08:54.851Z,11.63
2024-04-14T01:11:23.223Z,12.30
2024-04-14T01:13:51.108Z,11.88
2024-04-14T01:16:20.268Z,11.73
2024-04-14T01:18:48.313Z,12.27
2024-04-14T01:21:16.808Z,11.88
2024-04-14T01:23:44.949Z,10.73
2024-04-14T01:26:13.195Z,9.55
2024-04-14T01:28:41.094Z,10.00
2024-04-14T01:31:09.424Z,9.80
2024-04-14T01:33:37.486Z,8.65
2024-04-14T01:36:06.101Z,8.50
2024-04-14T01:38:34.037Z,8.43
2024-04-14T01:41:02.736Z,8.50
2024-04-14T01:43:30.977Z,8.10
2024-04-14T01:45:59.506Z,7.93
2024-04-14T01:48:28.953Z,8.48
2024-04-14T01:50:57.853Z,8.65
2024-04-14T01:53:25.784Z,8.32
2024-04-14T01:55:54.769Z,7.83
2024-04-14T01:58:22.702Z,7.60
2024-04-14T02:00:51.109Z,7.10
2024-04-14T02:03:19.159Z,7.53
2024-04-14T02:05:47.673Z,7.72
2024-04-14T02:08:15.637Z,7.75
2024-04-14T02:10:44.108Z,6.93
2024-04-14T02:13:12.064Z,7.97
2024-04-14T02:15:40.445Z,7.47
2024-04-14T02:18:08.851Z,7.53
2024-04-14T02:20:37.243Z,7.15
2024-04-14T02:23:05.939Z,7.43
2024-04-14T02:25:34.380Z,7.22
2024-04-14T02:28:04.905Z,7.05
2024-04-14T02:30:33.350Z,7.47
2024-04-14T02:33:02.049Z,7.20
2024-04-14T02:35:30.452Z,7.55
2024-04-14T02:37:58.371Z,7.30
2024-04-14T02:40:26.671Z,7.25
2024-04-14T02:42:54.697Z,7.00
2024-04-14T02:45:23.680Z,7.30
2024-04-14T02:47:51.646Z,6.43
2024-04-14T02:50:19.977Z,6.85
2024-04-14T02:52:47.857Z,7.05
2024-04-14T02:55:16.237Z,7.22
2024-04-14T02:57:47.246Z,6.47
2024-04-14T03:00:15.738Z,7.05
2024-04-14T03:02:47.312Z,6.30
2024-04-14T03:05:15.800Z,6.80
2024-04-14T03:07:43.642Z,7.07
2024-04-14T03:10:11.973Z,6.50
2024-04-14T03:12:39.958Z,6.40
2024-04-14T03:15:08.351Z,6.20
2024-04-14T03:17:36.256Z,5.63
2024-04-14T03:20:06.847Z,5.93
2024-04-14T03:22:34.834Z,5.65
2024-04-14T03:25:03.270Z,5.82
2024-04-14T03:27:31.263Z,5.45
2024-04-14T03:29:59.593Z,5.82
2024-04-14T03:32:27.540Z,6.32
2024-04-14T03:34:55.848Z,5.30
2024-04-14T03:37:23.720Z,5.50
2024-04-14T03:39:52.074Z,4.88
2024-04-14T03:42:22.495Z,6.57
2024-04-14T03:44:51.084Z,5.57
2024-04-14T03:47:18.998Z,5.47
2024-04-14T03:49:47.462Z,5.57
2024-04-14T03:52:15.302Z,5.30
2024-04-14T03:54:43.726Z,5.90
2024-04-14T03:57:11.621Z,5.07
2024-04-14T03:59:40.050Z,5.40
2024-04-14T04:02:08.415Z,6.07
2024-04-14T04:04:36.798Z,5.03
2024-04-14T04:07:04.844Z,5.15
2024-04-14T04:09:33.185Z,5.47
2024-04-14T04:12:01.091Z,5.30
2024-04-14T04:14:29.396Z,5.13
2024-04-14T04:16:57.259Z,5.40
2024-04-14T04:19:30.320Z,4.90
2024-04-14T04:21:58.306Z,5.28
2024-04-14T04:24:26.678Z,4.90
2024-04-14T04:26:54.629Z,5.35
2024-04-14T04:29:26.270Z,5.60
2024-04-14T04:31:54.192Z,5.60
2024-04-14T04:34:26.136Z,4.93
2024-04-14T04:36:54.276Z,5.38
2024-04-14T04:39:22.685Z,5.35
2024-04-14T04:41:50.622Z,4.60
2024-04-14T04:44:18.907Z,5.10
2024-04-14T04:46:46.824Z,4.90
2024-04-14T04:49:15.182Z,5.30
2024-04-14T04:51:43.093Z,4.78
2024-04-14T04:54:11.538Z,5.22
2024-04-14T04:56:39.674Z,5.28
2024-04-14T04:59:08.054Z,5.80
2024-04-14T05:01:37.100Z,5.35
2024-04-14T05:04:05.618Z,5.18
2024-04-14T05:06:33.644Z,6.38
2024-04-14T05:09:02.004Z,4.85
2024-04-14T05:11:30.081Z,5.57
2024-04-14T05:13:58.633Z,6.97
2024-04-14T05:16:27.270Z,5.38
2024-04-14T05:18:55.746Z,5.00
2024-04-14T05:21:23.738Z,5.85
2024-04-14T05:23:52.021Z,5.78
2024-04-14T05:26:19.941Z,6.53
2024-04-14T05:28:48.231Z,6.20
2024-04-14T05:31:16.341Z,5.60
2024-04-14T05:33:44.652Z,5.18
2024-04-14T05:36:13.307Z,5.22
2024-04-14T05:38:42.700Z,4.18
2024-04-14T05:41:10.669Z,3.80
2024-04-14T05:43:39.140Z,4.10
2024-04-14T05:46:07.115Z,3.80
2024-04-14T05:48:35.580Z,3.08
2024-04-14T05:51:03.720Z,2.83
2024-04-14T05:53:32.043Z,3.55
2024-04-14T05:56:00.055Z,3.30
2024-04-14T05:58:28.380Z,3.72
2024-04-14T06:00:58.945Z,3.50
2024-04-14T06:03:28.710Z,2.95
2024-04-14T06:05:57.319Z,3.20
2024-04-14T06:08:25.751Z,3.42
2024-04-14T06:10:53.750Z,3.08
2024-04-14T06:13:24.073Z,4.50
2024-04-14T06:18:20.303Z,3.40
2024-04-14T06:20:48.588Z,5.47
2024-04-14T06:23:20.161Z,4.32
2024-04-14T06:25:49.616Z,5.10
2024-04-14T06:28:17.936Z,5.35
2024-04-14T06:30:45.896Z,3.67
2024-04-14T06:33:14.482Z,5.32
2024-04-14T06:35:42.543Z,4.35
2024-04-14T06:38:10.841Z,3.28
2024-04-14T06:40:38.795Z,4.50
2024-04-14T06:43:07.172Z,6.75
2024-04-14T06:45:35.112Z,5.30
2024-04-14T06:48:03.559Z,4.45
2024-04-14T06:50:31.562Z,5.35
2024-04-14T06:53:00.636Z,4.28
2024-04-14T06:55:29.382Z,3.55
2024-04-14T07:00:32.215Z,3.20
2024-04-14T07:03:00.606Z,3.90
2024-04-14T07:05:28.565Z,2.97
2024-04-14T07:07:56.898Z,3.03
2024-04-14T07:10:24.922Z,3.10
2024-04-14T07:12:53.270Z,3.20
2024-04-14T07:15:23.537Z,3.63
2024-04-14T07:17:52.317Z,3.30
2024-04-14T07:20:21.099Z,3.63
2024-04-14T07:22:49.432Z,4.60
2024-04-14T07:25:17.354Z,4.95
2024-04-14T07:27:48.285Z,4.22
2024-04-14T07:30:16.358Z,8.02
2024-04-14T07:32:44.791Z,8.23
2024-04-14T07:35:12.754Z,6.47
2024-04-14T07:37:41.063Z,5.18
2024-04-14T07:40:09.278Z,3.03
2024-04-14T07:42:37.708Z,3.28
2024-04-14T07:45:06.460Z,2.85
2024-04-14T07:47:34.858Z,5.13
2024-04-14T07:50:02.977Z,4.70
2024-04-14T07:52:32.713Z,7.53
2024-04-14T07:55:00.734Z,4.13
2024-04-14T07:57:31.155Z,5.55
2024-04-14T07:59:59.108Z,4.45
2024-04-14T08:02:27.706Z,3.47
2024-04-14T08:04:55.899Z,4.60
2024-04-14T08:07:24.279Z,6.88
2024-04-14T08:09:52.230Z,3.67
2024-04-14T08:12:20.530Z,3.28
2024-04-14T08:14:48.496Z,3.20
2024-04-14T08:17:16.859Z,2.80
2024-04-14T08:19:44.759Z,3.33
2024-04-14T08:22:13.165Z,3.03
2024-04-14T08:24:41.211Z,3.50
2024-04-14T08:27:09.573Z,3.42
2024-04-14T08:29:38.913Z,4.05
2024-04-14T08:32:07.480Z,2.67
2024-04-14T08:34:35.465Z,2.65
2024-04-14T08:37:04.047Z,2.80
2024-04-14T08:39:32.023Z,2.97
2024-04-14T08:42:01.458Z,2.55
2024-04-14T08:44:29.439Z,3.10
2024-04-14T08:46:58.283Z,2.90
2024-04-14T08:49:26.673Z,3.08
2024-04-14T08:51:56.387Z,3.08
2024-04-14T08:54:24.583Z,3.25
2024-04-14T08:57:01.862Z,3.67
2024-04-14T08:59:30.174Z,3.17
2024-04-14T09:01:59.377Z,2.92
2024-04-14T09:04:27.473Z,3.08
2024-04-14T09:06:55.898Z,2.80
2024-04-14T09:09:24.389Z,5.25
2024-04-14T09:11:53.100Z,8.52
2024-04-14T09:14:23.548Z,5.90
2024-04-14T09:16:52.524Z,3.88
2024-04-14T09:19:20.486Z,7.50
2024-04-14T09:21:49.242Z,5.45
2024-04-14T09:24:20.037Z,3.97
2024-04-14T09:26:48.510Z,2.90
2024-04-14T09:29:17.970Z,2.40
2024-04-14T09:31:46.319Z,2.78
2024-04-14T09:34:14.384Z,3.00
2024-04-14T09:36:42.988Z,2.92
2024-04-14T09:39:11.153Z,3.03
2024-04-14T09:41:39.512Z,2.70
2024-04-14T09:44:08.018Z,2.88
2024-04-14T09:46:36.408Z,3.08
2024-04-14T09:49:06.206Z,3.10
2024-04-14T09:51:37.190Z,2.40
2024-04-14T09:54:05.216Z,2.58
2024-04-14T09:56:33.858Z,2.78
2024-04-14T09:59:01.844Z,2.83
2024-04-14T10:01:36.205Z,2.95
2024-04-14T10:04:04.707Z,2.38
2024-04-14T10:06:34.198Z,2.83
2024-04-14T10:09:02.814Z,2.85
2024-04-14T10:11:34.409Z,2.38
2024-04-14T10:14:02.919Z,2.60
2024-04-14T10:16:31.323Z,2.42
2024-04-14T10:19:04.876Z,2.30
2024-04-14T10:21:34.871Z,2.85
2024-04-14T10:24:05.579Z,2.55
2024-04-14T10:26:34.233Z,2.13
2024-04-14T10:29:02.115Z,2.80
2024-04-14T10:31:36.903Z,2.22
2024-04-14T10:34:04.950Z,2.45
2024-04-14T10:36:34.635Z,3.92
2024-04-14T10:39:02.863Z,2.60
2024-04-14T10:41:31.192Z,2.40
2024-04-14T10:43:59.135Z,2.35
2024-04-14T10:46:28.036Z,2.75
2024-04-14T10:48:56.958Z,2.22
2024-04-14T10:51:25.526Z,2.20
2024-04-14T10:53:55.087Z,2.78
2024-04-14T10:58:51.254Z,2.80
2024-04-14T11:01:19.783Z,2.83
2024-04-14T11:03:48.558Z,2.30
2024-04-14T11:06:17.125Z,2.72
2024-04-14T11:08:48.073Z,2.22
2024-04-14T11:11:16.583Z,2.50
2024-04-14T11:13:44.675Z,2.60
2024-04-14T11:16:17.620Z,2.60
2024-04-14T11:18:47.965Z,2.78
2024-04-14T11:21:25.414Z,2.58
2024-04-14T11:23:53.437Z,2.50
2024-04-14T11:26:23.245Z,2.30
2024-04-14T11:28:51.628Z,2.80
2024-04-14T11:31:20.010Z,2.17
2024-04-14T11:33:57.216Z,2.90
2024-04-14T11:36:31.813Z,2.50
2024-04-14T11:39:02.294Z,2.33
2024-04-14T11:43:58.572Z,2.60
2024-04-14T11:46:27.593Z,5.80
2024-04-14T11:48:55.584Z,2.47
2024-04-14T11:51:23.922Z,2.33
2024-04-14T11:53:51.856Z,3.95
2024-04-14T11:56:20.195Z,4.00
2024-04-14T11:58:48.077Z,3.60
2024-04-14T12:01:16.533Z,2.65
2024-04-14T12:03:44.543Z,2.65
2024-04-14T12:06:12.868Z,2.20
2024-04-14T12:08:40.770Z,3.10
2024-04-14T12:11:09.323Z,2.63
2024-04-14T12:13:37.908Z,2.47
2024-04-14T12:16:06.450Z,2.10
2024-04-14T12:18:34.448Z,2.30
2024-04-14T12:21:02.834Z,2.30
2024-04-14T12:23:31.126Z,2.33
2024-04-14T12:25:59.851Z,2.60
2024-04-14T12:28:27.753Z,2.78
2024-04-14T12:30:56.185Z,3.30
2024-04-14T12:33:24.101Z,2.65
2024-04-14T12:35:54.934Z,2.65
2024-04-14T12:38:22.820Z,2.42
2024-04-14T12:40:51.662Z,2.38
2024-04-14T12:43:19.658Z,2.85
2024-04-14T12:45:49.848Z,2.65
2024-04-14T12:50:53.601Z,2.58
2024-04-14T12:53:22.175Z,2.92
2024-04-14T12:55:51.306Z,3.08
2024-04-14T12:58:19.241Z,2.65
2024-04-14T13:00:47.730Z,2.70
2024-04-14T13:06:03.416Z,2.30
2024-04-14T13:08:31.382Z,2.20
2024-04-14T13:10:59.781Z,2.50
2024-04-14T13:13:27.676Z,3.83
2024-04-14T13:15:56.407Z,2.70
2024-04-14T13:18:24.296Z,2.70
2024-04-14T13:20:52.743Z,2.40
2024-04-14T13:23:22.344Z,2.40
2024-04-14T13:25:50.854Z,2.67
2024-04-14T13:28:19.378Z,2.78
2024-04-14T13:30:48.816Z,2.90
2024-04-14T13:33:16.885Z,2.67
2024-04-14T13:35:53.036Z,2.50
2024-04-14T13:38:20.938Z,3.15
2024-04-14T13:40:49.296Z,2.92
2024-04-14T13:43:18.281Z,2.55
2024-04-14T13:45:46.919Z,2.63
2024-04-14T13:48:14.823Z,2.80
2024-04-14T13:50:44.057Z,3.35
2024-04-14T13:53:12.044Z,2.95
2024-04-14T13:55:40.317Z,2.92
2024-04-14T13:58:08.219Z,2.50
2024-04-14T14:00:39.824Z,2.60
2024-04-14T14:03:07.986Z,3.35
2024-04-14T14:05:37.503Z,2.80
2024-04-14T14:08:05.837Z,2.27
2024-04-14T14:10:34.136Z,2.67
2024-04-14T14:13:02.765Z,3.03
2024-04-14T14:15:33.699Z,2.53
2024-04-14T14:18:02.844Z,2.70
2024-04-14T14:20:31.312Z,2.55
2024-04-14T14:22:59.267Z,2.50
2024-04-14T14:25:29.168Z,2.55
2024-04-14T14:28:00.217Z,2.72
2024-04-14T14:30:29.558Z,3.00
2024-04-14T14:33:09.897Z,2.75
2024-04-14T14:35:56.869Z,2.55
2024-04-14T14:38:33.655Z,2.85
2024-04-14T14:41:08.140Z,2.60
2024-04-14T14:43:36.924Z,2.60
2024-04-14T14:46:08.791Z,2.88
2024-04-14T14:48:36.895Z,2.75
2024-04-14T14:51:05.590Z,2.85
2024-04-14T14:53:34.309Z,3.03
2024-04-14T14:56:04.907Z,2.70
2024-04-14T14:58:36.636Z,2.92
2024-04-14T15:01:12.346Z,2.60
2024-04-14T15:03:40.416Z,2.90
2024-04-14T15:06:11.926Z,2.80
2024-04-14T15:08:46.015Z,3.13
2024-04-14T15:11:18.965Z,2.72
2024-04-14T15:13:51.122Z,2.70
2024-04-14T15:18:47.347Z,2.60
2024-04-14T15:21:15.814Z,2.60
2024-04-14T15:23:44.258Z,3.10
2024-04-14T15:26:12.557Z,3.00
2024-04-14T15:28:40.729Z,2.80
2024-04-14T15:31:09.754Z,2.67
2024-04-14T15:33:38.184Z,2.38
2024-04-14T15:36:09.344Z,2.63
2024-04-14T15:38:39.647Z,3.17
2024-04-14T15:41:07.961Z,2.67
2024-04-14T15:43:35.982Z,3.15
2024-04-14T15:46:05.101Z,2.65
2024-04-14T15:48:33.214Z,2.70
2024-04-14T15:51:12.929Z,3.10
2024-04-14T15:53:46.277Z,3.20
2024-04-14T15:56:14.536Z,2.35
2024-04-14T15:58:42.479Z,2.92
2024-04-14T16:01:11.288Z,2.85
2024-04-14T16:03:39.583Z,3.00
2024-04-14T16:06:08.267Z,3.38
2024-04-14T16:08:36.814Z,3.13
2024-04-14T16:11:06.208Z,2.78
2024-04-14T16:13:37.626Z,3.10
2024-04-14T16:16:09.978Z,3.20
2024-04-14T16:18:39.047Z,3.38
2024-04-14T16:21:08.161Z,2.50
2024-04-14T16:23:40.849Z,2.72
2024-04-14T16:26:09.361Z,2.97
2024-04-14T16:28:37.512Z,2.95
2024-04-14T16:31:06.432Z,3.03
2024-04-14T16:33:37.490Z,2.90
2024-04-14T16:36:06.403Z,3.05
2024-04-14T16:38:34.910Z,3.05
2024-04-14T16:41:03.282Z,2.63
2024-04-14T16:43:32.091Z,3.35
2024-04-14T16:46:00.537Z,3.50
2024-04-14T16:48:29.043Z,3.17
2024-04-14T16:50:57.715Z,3.00
2024-04-14T16:53:25.567Z,2.97
2024-04-14T16:55:53.948Z,2.80
2024-04-14T16:58:21.937Z,2.90
2024-04-14T17:00:50.322Z,3.00
2024-04-14T17:03:18.476Z,2.90
2024-04-14T17:05:46.895Z,3.25
2024-04-14T17:08:14.847Z,2.80
2024-04-14T17:10:43.142Z,3.88
2024-04-14T17:13:11.496Z,2.92
2024-04-14T17:15:39.864Z,3.78
2024-04-14T17:18:10.488Z,3.33
2024-04-14T17:20:40.514Z,2.97
2024-04-14T17:23:09.383Z,3.92
2024-04-14T17:25:39.324Z,3.13
2024-04-14T17:28:07.407Z,3.35
2024-04-14T17:30:36.843Z,3.15
2024-04-14T17:33:05.044Z,3.93
2024-04-14T17:35:33.404Z,3.42
2024-04-14T17:38:01.420Z,3.10
2024-04-14T17:40:29.724Z,3.83
2024-04-14T17:42:57.724Z,4.28
2024-04-14T17:45:28.745Z,3.20
2024-04-14T17:47:56.802Z,3.35
2024-04-14T17:50:25.132Z,3.13
2024-04-14T17:52:53.127Z,3.75
2024-04-14T17:55:21.464Z,3.20
2024-04-14T17:57:49.483Z,3.42
2024-04-14T18:00:17.963Z,2.95
2024-04-14T18:02:51.168Z,3.35
2024-04-14T18:05:19.730Z,2.55
2024-04-14T18:07:47.706Z,3.05
2024-04-14T18:10:16.244Z,3.28
2024-04-14T18:12:45.530Z,2.72
2024-04-14T18:15:13.892Z,4.03
2024-04-14T18:17:41.772Z,3.85
2024-04-14T18:20:10.158Z,3.92
2024-04-14T18:22:38.103Z,5.45
2024-04-14T18:25:06.629Z,6.55
2024-04-14T18:27:34.531Z,8.98
2024-04-14T18:30:03.298Z,10.23
2024-04-14T18:32:32.975Z,9.63
2024-04-14T18:35:01.408Z,7.13
2024-04-14T18:37:29.491Z,4.20
2024-04-14T18:39:57.816Z,4.35
2024-04-14T18:42:25.776Z,3.58
2024-04-14T18:44:54.381Z,4.65
2024-04-14T18:47:22.406Z,5.03
2024-04-14T18:49:50.954Z,7.55
2024-04-14T18:52:18.898Z,4.45
2024-04-14T18:54:50.884Z,5.55
2024-04-14T18:57:19.147Z,4.97
2024-04-14T18:59:47.479Z,5.18
2024-04-14T19:02:15.653Z,3.92
2024-04-14T19:04:44.089Z,4.00
2024-04-14T19:07:11.989Z,3.55
2024-04-14T19:09:40.947Z,3.72
2024-04-14T19:12:09.805Z,3.95
2024-04-14T19:14:39.918Z,3.55
2024-04-14T19:17:08.111Z,3.70
2024-04-14T19:19:36.545Z,4.25
2024-04-14T19:22:04.701Z,4.47
2024-04-14T19:24:33.106Z,3.33
2024-04-14T19:27:01.673Z,3.10
2024-04-14T19:29:30.138Z,3.42
2024-04-14T19:31:58.119Z,3.60
2024-04-14T19:34:26.487Z,3.90
2024-04-14T19:36:55.357Z,3.25
2024-04-14T19:39:23.815Z,3.75
2024-04-14T19:41:52.679Z,3.25
2024-04-14T19:44:21.130Z,3.15
2024-04-14T19:46:49.182Z,4.00
2024-04-14T19:49:17.894Z,3.70
2024-04-14T19:51:46.103Z,3.97
2024-04-14T19:54:15.235Z,3.83
2024-04-14T19:56:43.159Z,4.20
2024-04-14T19:59:12.661Z,3.83
2024-04-14T20:01:40.771Z,3.70
2024-04-14T20:04:09.296Z,4.00
2024-04-14T20:06:37.292Z,3.55
2024-04-14T20:09:06.272Z,3.65
2024-04-14T20:11:37.290Z,3.55
2024-04-14T20:14:05.694Z,3.28
2024-04-14T20:16:38.186Z,2.85
2024-04-14T20:19:07.132Z,3.33
2024-04-14T20:21:35.340Z,3.28
2024-04-14T20:24:04.494Z,3.30
2024-04-14T20:26:32.453Z,2.92
2024-04-14T20:29:00.847Z,3.38
2024-04-14T20:31:29.762Z,3.42
2024-04-14T20:34:04.317Z,3.03
2024-04-14T20:36:32.302Z,3.30
2024-04-14T20:39:03.162Z,3.85
2024-04-14T20:41:31.290Z,3.30
2024-04-14T20:43:59.586Z,3.17
2024-04-14T20:46:27.519Z,3.75
2024-04-14T20:48:55.802Z,3.33
2024-04-14T20:51:23.829Z,2.97
2024-04-14T20:53:53.325Z,2.90
2024-04-14T20:56:21.341Z,3.17
2024-04-14T21:01:19.137Z,2.65
2024-04-14T21:03:47.680Z,3.17
2024-04-14T21:06:15.751Z,4.00
2024-04-14T21:08:44.400Z,2.90
2024-04-14T21:11:12.508Z,2.80
2024-04-14T21:13:47.203Z,3.17
2024-04-14T21:16:15.306Z,3.08
2024-04-14T21:18:43.738Z,3.08
2024-04-14T21:21:11.829Z,2.88
2024-04-14T21:23:43.269Z,3.42
2024-04-14T21:26:11.437Z,3.05
2024-04-14T21:28:39.881Z,2.50
2024-04-14T21:31:08.015Z,3.72
2024-04-14T21:33:36.756Z,3.70
2024-04-14T21:36:05.221Z,3.22
2024-04-14T21:38:33.626Z,2.60
2024-04-14T21:41:01.569Z,2.95
2024-04-14T21:43:29.881Z,2.88
2024-04-14T21:46:04.671Z,2.67
2024-04-14T21:48:33.260Z,2.60
2024-04-14T21:51:06.144Z,2.58
2024-04-14T21:53:37.610Z,2.30
2024-04-14T21:56:05.638Z,3.17
2024-04-14T21:58:36.216Z,2.60
2024-04-14T22:01:12.724Z,2.90
2024-04-14T22:03:41.314Z,2.35
2024-04-14T22:06:09.335Z,2.47
2024-04-14T22:08:41.446Z,2.95
2024-04-14T22:11:09.975Z,2.67
2024-04-14T22:13:38.474Z,2.73
2024-04-14T22:16:06.997Z,2.90
2024-04-14T22:18:35.326Z,2.97
2024-04-14T22:21:03.291Z,2.50
2024-04-14T22:23:31.680Z,2.20
2024-04-14T22:25:59.659Z,3.40
2024-04-14T22:28:27.969Z,2.63
2024-04-14T22:30:55.828Z,2.90
2024-04-14T22:33:24.164Z,2.90
2024-04-14T22:35:52.157Z,3.13
2024-04-14T22:38:20.849Z,2.92
2024-04-14T22:40:48.725Z,2.80
2024-04-14T22:43:18.311Z,2.67
2024-04-14T22:45:47.098Z,2.55
2024-04-14T22:48:15.437Z,2.90
2024-04-14T22:50:43.347Z,2.45
2024-04-14T22:53:11.861Z,3.15
2024-04-14T22:55:42.113Z,2.70
2024-04-14T22:58:10.599Z,2.60
2024-04-14T23:00:41.203Z,3.22
2024-04-14T23:03:09.726Z,3.10
2024-04-14T23:05:37.741Z,2.45
2024-04-14T23:08:06.352Z,2.75
2024-04-14T23:10:34.211Z,3.20
2024-04-14T23:13:03.564Z,2.80
2024-04-14T23:15:31.814Z,3.00
2024-04-14T23:18:00.184Z,2.50
2024-04-14T23:20:29.177Z,2.78
2024-04-14T23:22:58.993Z,3.28
2024-04-14T23:25:26.894Z,2.75
2024-04-14T23:27:55.208Z,2.60
2024-04-14T23:30:23.256Z,2.67
2024-04-14T23:32:51.585Z,2.97
2024-04-14T23:35:19.575Z,2.47
2024-04-14T23:37:47.966Z,2.30
2024-04-14T23:40:15.952Z,2.72
2024-04-14T23:42:44.551Z,2.50
2024-04-14T23:45:12.504Z,2.70
2024-04-14T23:47:40.909Z,2.40
2024-04-14T23:50:08.899Z,2.53
2024-04-14T23:52:37.171Z,2.75
2024-04-14T23:55:05.199Z,2.65
2024-04-14T23:57:39.072Z,3.58
